sensor_id;sensor_type;location;lat;lon;timestamp;temperature;humidity
57552;DHT22;43379;48.160;14.036;2022-12-11T00:00:10;3.00;99.90
57552;DHT22;43379;48.160;14.036;2022-12-11T00:02:36;2.90;99.90
57552;DHT22;43379;48.160;14.036;2022-12-11T00:05:05;2.90;99.90
57552;DHT22;43379;48.160;14.036;2022-12-11T00:07:31;2.90;99.90
57552;DHT22;43379;48.160;14.036;2022-12-11T00:09:56;2.90;99.90
57552;DHT22;43379;48.160;14.036;2022-12-11T00:12:22;2.90;99.90
57552;DHT22;43379;48.160;14.036;2022-12-11T00:14:48;2.90;99.90
57552;DHT22;43379;48.160;14.036;2022-12-11T00:17:13;3.00;99.90
57552;DHT22;43379;48.160;14.036;2022-12-11T00:19:39;3.00;99.90
57552;DHT22;43379;48.160;14.036;2022-12-11T00:22:04;2.90;99.90
57552;DHT22;43379;48.160;14.036;2022-12-11T00:24:30;3.00;99.90
57552;DHT22;43379;48.160;14.036;2022-12-11T00:26:56;2.90;99.90
57552;DHT22;43379;48.160;14.036;2022-12-11T00:29:21;2.90;99.90
57552;DHT22;43379;48.160;14.036;2022-12-11T00:31:47;2.90;99.90
57552;DHT22;43379;48.160;14.036;2022-12-11T00:34:12;2.90;99.90
57552;DHT22;43379;48.160;14.036;2022-12-11T00:36:38;2.90;99.90
57552;DHT22;43379;48.160;14.036;2022-12-11T00:39:04;3.00;99.90
57552;DHT22;43379;48.160;14.036;2022-12-11T00:41:30;2.90;99.90
57552;DHT22;43379;48.160;14.036;2022-12-11T00:43:56;2.90;99.90
57552;DHT22;43379;48.160;14.036;2022-12-11T00:46:22;2.90;99.90
57552;DHT22;43379;48.160;14.036;2022-12-11T00:48:48;2.80;99.90
57552;DHT22;43379;48.160;14.036;2022-12-11T00:51:15;2.90;99.90
57552;DHT22;43379;48.160;14.036;2022-12-11T00:53:41;2.90;99.90
57552;DHT22;43379;48.160;14.036;2022-12-11T00:56:12;3.00;99.90
57552;DHT22;43379;48.160;14.036;2022-12-11T00:58:37;2.90;99.90
57552;DHT22;43379;48.160;14.036;2022-12-11T01:01:15;2.90;99.90
57552;DHT22;43379;48.160;14.036;2022-12-11T01:03:41;2.90;99.90
57552;DHT22;43379;48.160;14.036;2022-12-11T01:06:07;2.90;99.90
57552;DHT22;43379;48.160;14.036;2022-12-11T01:08:37;2.90;99.90
57552;DHT22;43379;48.160;14.036;2022-12-11T01:11:06;2.90;99.90
57552;DHT22;43379;48.160;14.036;2022-12-11T01:13:32;2.90;99.90
57552;DHT22;43379;48.160;14.036;2022-12-11T01:15:58;2.80;99.90
57552;DHT22;43379;48.160;14.036;2022-12-11T01:18:24;2.90;99.90
57552;DHT22;43379;48.160;14.036;2022-12-11T01:20:50;2.90;99.90
57552;DHT22;43379;48.160;14.036;2022-12-11T01:23:15;2.90;99.90
57552;DHT22;43379;48.160;14.036;2022-12-11T01:25:42;2.90;99.90
57552;DHT22;43379;48.160;14.036;2022-12-11T01:28:09;2.90;99.90
57552;DHT22;43379;48.160;14.036;2022-12-11T01:30:35;2.90;99.90
57552;DHT22;43379;48.160;14.036;2022-12-11T01:33:01;2.90;99.90
57552;DHT22;43379;48.160;14.036;2022-12-11T01:35:27;2.90;99.90
57552;DHT22;43379;48.160;14.036;2022-12-11T01:37:53;2.90;99.90
57552;DHT22;43379;48.160;14.036;2022-12-11T01:40:19;2.90;99.90
57552;DHT22;43379;48.160;14.036;2022-12-11T01:42:45;2.90;99.90
57552;DHT22;43379;48.160;14.036;2022-12-11T01:47:39;2.90;99.90
57552;DHT22;43379;48.160;14.036;2022-12-11T01:50:05;2.80;99.90
57552;DHT22;43379;48.160;14.036;2022-12-11T01:52:31;2.80;99.90
57552;DHT22;43379;48.160;14.036;2022-12-11T01:54:57;2.80;99.90
57552;DHT22;43379;48.160;14.036;2022-12-11T01:57:22;2.80;99.90
57552;DHT22;43379;48.160;14.036;2022-12-11T01:59:48;2.80;99.90
57552;DHT22;43379;48.160;14.036;2022-12-11T02:02:23;2.80;99.90
57552;DHT22;43379;48.160;14.036;2022-12-11T02:04:50;2.80;99.90
57552;DHT22;43379;48.160;14.036;2022-12-11T02:07:16;2.80;99.90
57552;DHT22;43379;48.160;14.036;2022-12-11T02:09:44;2.90;99.90
57552;DHT22;43379;48.160;14.036;2022-12-11T02:18:00;2.90;99.90
57552;DHT22;43379;48.160;14.036;2022-12-11T02:28:48;2.90;99.90
57552;DHT22;43379;48.160;14.036;2022-12-11T02:31:28;2.90;99.90
57552;DHT22;43379;48.160;14.036;2022-12-11T02:34:03;2.90;99.90
57552;DHT22;43379;48.160;14.036;2022-12-11T02:36:32;2.90;99.90
57552;DHT22;43379;48.160;14.036;2022-12-11T02:39:00;2.90;99.90
57552;DHT22;43379;48.160;14.036;2022-12-11T02:41:27;2.90;99.90
57552;DHT22;43379;48.160;14.036;2022-12-11T02:43:55;2.90;99.90
57552;DHT22;43379;48.160;14.036;2022-12-11T02:46:22;2.90;99.90
57552;DHT22;43379;48.160;14.036;2022-12-11T02:48:50;2.90;99.90
57552;DHT22;43379;48.160;14.036;2022-12-11T02:51:23;2.80;99.90
57552;DHT22;43379;48.160;14.036;2022-12-11T02:53:53;2.80;99.90
57552;DHT22;43379;48.160;14.036;2022-12-11T02:56:33;2.70;99.90
57552;DHT22;43379;48.160;14.036;2022-12-11T02:59:13;2.80;99.90
57552;DHT22;43379;48.160;14.036;2022-12-11T03:01:40;2.70;99.90
57552;DHT22;43379;48.160;14.036;2022-12-11T03:04:06;2.70;99.90
57552;DHT22;43379;48.160;14.036;2022-12-11T03:06:36;2.80;99.90
57552;DHT22;43379;48.160;14.036;2022-12-11T03:09:04;2.70;99.90
57552;DHT22;43379;48.160;14.036;2022-12-11T03:11:30;2.80;99.90
57552;DHT22;43379;48.160;14.036;2022-12-11T03:13:56;2.80;99.90
57552;DHT22;43379;48.160;14.036;2022-12-11T03:16:36;2.80;99.90
57552;DHT22;43379;48.160;14.036;2022-12-11T03:19:16;2.90;99.90
57552;DHT22;43379;48.160;14.036;2022-12-11T03:22:02;2.80;99.90
57552;DHT22;43379;48.160;14.036;2022-12-11T03:24:56;2.80;99.90
57552;DHT22;43379;48.160;14.036;2022-12-11T03:27:42;2.80;99.90
57552;DHT22;43379;48.160;14.036;2022-12-11T03:30:13;2.80;99.90
57552;DHT22;43379;48.160;14.036;2022-12-11T03:33:02;2.80;99.90
57552;DHT22;43379;48.160;14.036;2022-12-11T03:38:02;2.70;99.90
57552;DHT22;43379;48.160;14.036;2022-12-11T03:40:31;2.70;99.90
57552;DHT22;43379;48.160;14.036;2022-12-11T03:42:59;2.60;99.90
57552;DHT22;43379;48.160;14.036;2022-12-11T03:45:26;2.70;99.90
57552;DHT22;43379;48.160;14.036;2022-12-11T03:47:55;2.70;99.90
57552;DHT22;43379;48.160;14.036;2022-12-11T03:50:23;2.60;99.90
57552;DHT22;43379;48.160;14.036;2022-12-11T03:52:51;2.70;99.90
57552;DHT22;43379;48.160;14.036;2022-12-11T03:55:20;2.70;99.90
57552;DHT22;43379;48.160;14.036;2022-12-11T03:57:46;2.70;99.90
57552;DHT22;43379;48.160;14.036;2022-12-11T04:00:16;2.70;99.90
57552;DHT22;43379;48.160;14.036;2022-12-11T04:02:41;2.70;99.90
57552;DHT22;43379;48.160;14.036;2022-12-11T04:05:08;2.60;99.90
57552;DHT22;43379;48.160;14.036;2022-12-11T04:07:34;2.60;99.90
57552;DHT22;43379;48.160;14.036;2022-12-11T04:10:00;2.60;99.90
57552;DHT22;43379;48.160;14.036;2022-12-11T04:12:25;2.60;99.90
57552;DHT22;43379;48.160;14.036;2022-12-11T04:14:51;2.70;99.90
57552;DHT22;43379;48.160;14.036;2022-12-11T04:17:33;2.70;99.90
57552;DHT22;43379;48.160;14.036;2022-12-11T04:20:18;2.70;99.90
57552;DHT22;43379;48.160;14.036;2022-12-11T04:23:04;2.60;99.90
57552;DHT22;43379;48.160;14.036;2022-12-11T04:25:48;2.60;99.90
57552;DHT22;43379;48.160;14.036;2022-12-11T04:28:14;2.60;99.90
57552;DHT22;43379;48.160;14.036;2022-12-11T04:30:40;2.60;99.90
57552;DHT22;43379;48.160;14.036;2022-12-11T04:33:06;2.60;99.90
57552;DHT22;43379;48.160;14.036;2022-12-11T04:35:32;2.60;99.90
57552;DHT22;43379;48.160;14.036;2022-12-11T04:37:57;2.50;99.90
57552;DHT22;43379;48.160;14.036;2022-12-11T04:40:23;2.50;99.90
57552;DHT22;43379;48.160;14.036;2022-12-11T04:42:49;2.50;99.90
57552;DHT22;43379;48.160;14.036;2022-12-11T04:45:15;2.50;99.90
57552;DHT22;43379;48.160;14.036;2022-12-11T04:47:41;2.40;99.90
57552;DHT22;43379;48.160;14.036;2022-12-11T04:50:11;2.40;99.90
57552;DHT22;43379;48.160;14.036;2022-12-11T04:52:38;2.40;99.90
57552;DHT22;43379;48.160;14.036;2022-12-11T04:55:05;2.40;99.90
57552;DHT22;43379;48.160;14.036;2022-12-11T04:57:31;2.40;99.90
57552;DHT22;43379;48.160;14.036;2022-12-11T04:59:57;2.40;99.90
57552;DHT22;43379;48.160;14.036;2022-12-11T05:02:24;2.40;99.90
57552;DHT22;43379;48.160;14.036;2022-12-11T05:04:51;2.40;99.90
57552;DHT22;43379;48.160;14.036;2022-12-11T05:07:16;2.40;99.90
57552;DHT22;43379;48.160;14.036;2022-12-11T05:09:42;2.40;99.90
57552;DHT22;43379;48.160;14.036;2022-12-11T05:12:08;2.40;99.90
57552;DHT22;43379;48.160;14.036;2022-12-11T05:14:33;2.40;99.90
57552;DHT22;43379;48.160;14.036;2022-12-11T05:16:59;2.40;99.90
57552;DHT22;43379;48.160;14.036;2022-12-11T05:19:26;2.30;99.90
57552;DHT22;43379;48.160;14.036;2022-12-11T05:21:52;2.40;99.90
57552;DHT22;43379;48.160;14.036;2022-12-11T05:24:18;2.30;99.90
57552;DHT22;43379;48.160;14.036;2022-12-11T05:26:43;2.30;99.90
57552;DHT22;43379;48.160;14.036;2022-12-11T05:29:09;2.30;99.90
57552;DHT22;43379;48.160;14.036;2022-12-11T05:31:35;2.20;99.90
57552;DHT22;43379;48.160;14.036;2022-12-11T05:34:00;2.20;99.90
57552;DHT22;43379;48.160;14.036;2022-12-11T05:36:31;2.20;99.90
57552;DHT22;43379;48.160;14.036;2022-12-11T05:38:57;2.30;99.90
57552;DHT22;43379;48.160;14.036;2022-12-11T05:41:25;2.20;99.90
57552;DHT22;43379;48.160;14.036;2022-12-11T05:43:51;2.20;99.90
57552;DHT22;43379;48.160;14.036;2022-12-11T05:46:20;2.20;99.90
57552;DHT22;43379;48.160;14.036;2022-12-11T05:48:48;2.10;99.90
57552;DHT22;43379;48.160;14.036;2022-12-11T05:51:14;2.10;99.90
57552;DHT22;43379;48.160;14.036;2022-12-11T05:53:42;2.10;99.90
57552;DHT22;43379;48.160;14.036;2022-12-11T05:56:13;2.00;99.90
57552;DHT22;43379;48.160;14.036;2022-12-11T05:58:40;2.00;99.90
57552;DHT22;43379;48.160;14.036;2022-12-11T06:01:10;2.00;99.90
57552;DHT22;43379;48.160;14.036;2022-12-11T06:03:37;2.00;99.90
57552;DHT22;43379;48.160;14.036;2022-12-11T06:06:04;2.00;99.90
57552;DHT22;43379;48.160;14.036;2022-12-11T06:08:30;1.90;99.90
57552;DHT22;43379;48.160;14.036;2022-12-11T06:10:56;2.00;99.90
57552;DHT22;43379;48.160;14.036;2022-12-11T06:13:22;1.90;99.90
57552;DHT22;43379;48.160;14.036;2022-12-11T06:15:47;1.90;99.90
57552;DHT22;43379;48.160;14.036;2022-12-11T06:18:13;1.90;99.90
57552;DHT22;43379;48.160;14.036;2022-12-11T06:20:39;2.00;99.90
57552;DHT22;43379;48.160;14.036;2022-12-11T06:23:05;2.00;99.90
57552;DHT22;43379;48.160;14.036;2022-12-11T06:25:30;1.90;99.90
57552;DHT22;43379;48.160;14.036;2022-12-11T06:27:57;1.90;99.90
57552;DHT22;43379;48.160;14.036;2022-12-11T06:30:23;1.90;99.90
57552;DHT22;43379;48.160;14.036;2022-12-11T06:32:48;1.90;99.90
57552;DHT22;43379;48.160;14.036;2022-12-11T06:35:14;2.00;99.90
57552;DHT22;43379;48.160;14.036;2022-12-11T06:37:40;1.90;99.90
57552;DHT22;43379;48.160;14.036;2022-12-11T06:40:07;1.90;99.90
57552;DHT22;43379;48.160;14.036;2022-12-11T06:42:33;1.90;99.90
57552;DHT22;43379;48.160;14.036;2022-12-11T06:44:59;2.00;99.90
57552;DHT22;43379;48.160;14.036;2022-12-11T06:47:28;1.90;99.90
57552;DHT22;43379;48.160;14.036;2022-12-11T06:49:55;1.90;99.90
57552;DHT22;43379;48.160;14.036;2022-12-11T06:52:22;1.90;99.90
57552;DHT22;43379;48.160;14.036;2022-12-11T06:54:48;1.90;99.90
57552;DHT22;43379;48.160;14.036;2022-12-11T06:57:14;1.90;99.90
57552;DHT22;43379;48.160;14.036;2022-12-11T06:59:39;1.90;99.90
57552;DHT22;43379;48.160;14.036;2022-12-11T07:02:05;1.90;99.90
57552;DHT22;43379;48.160;14.036;2022-12-11T07:04:31;1.90;99.90
57552;DHT22;43379;48.160;14.036;2022-12-11T07:06:57;1.90;99.90
57552;DHT22;43379;48.160;14.036;2022-12-11T07:09:23;1.90;99.90
57552;DHT22;43379;48.160;14.036;2022-12-11T07:11:52;1.90;99.90
57552;DHT22;43379;48.160;14.036;2022-12-11T07:14:18;1.80;99.90
57552;DHT22;43379;48.160;14.036;2022-12-11T07:16:44;1.90;99.90
57552;DHT22;43379;48.160;14.036;2022-12-11T07:19:10;1.90;99.90
57552;DHT22;43379;48.160;14.036;2022-12-11T07:21:36;1.90;99.90
57552;DHT22;43379;48.160;14.036;2022-12-11T07:24:02;1.80;99.90
57552;DHT22;43379;48.160;14.036;2022-12-11T07:26:28;1.80;99.90
57552;DHT22;43379;48.160;14.036;2022-12-11T07:28:57;1.80;99.90
57552;DHT22;43379;48.160;14.036;2022-12-11T07:31:24;1.80;99.90
57552;DHT22;43379;48.160;14.036;2022-12-11T07:33:54;1.90;99.90
57552;DHT22;43379;48.160;14.036;2022-12-11T07:36:20;1.80;99.90
57552;DHT22;43379;48.160;14.036;2022-12-11T07:38:46;1.90;99.90
57552;DHT22;43379;48.160;14.036;2022-12-11T07:41:13;1.90;99.90
57552;DHT22;43379;48.160;14.036;2022-12-11T07:43:39;2.00;99.90
57552;DHT22;43379;48.160;14.036;2022-12-11T07:46:11;1.90;99.90
57552;DHT22;43379;48.160;14.036;2022-12-11T07:48:39;1.90;99.90
57552;DHT22;43379;48.160;14.036;2022-12-11T07:51:11;1.90;99.90
57552;DHT22;43379;48.160;14.036;2022-12-11T07:53:40;2.00;99.90
57552;DHT22;43379;48.160;14.036;2022-12-11T07:56:07;2.00;99.90
57552;DHT22;43379;48.160;14.036;2022-12-11T07:58:33;1.90;99.90
57552;DHT22;43379;48.160;14.036;2022-12-11T08:00:59;1.90;99.90
57552;DHT22;43379;48.160;14.036;2022-12-11T08:03:24;1.90;99.90
57552;DHT22;43379;48.160;14.036;2022-12-11T08:05:52;1.80;99.90
57552;DHT22;43379;48.160;14.036;2022-12-11T08:08:18;1.80;99.90
57552;DHT22;43379;48.160;14.036;2022-12-11T08:10:44;1.70;99.90
57552;DHT22;43379;48.160;14.036;2022-12-11T08:13:10;1.70;99.90
57552;DHT22;43379;48.160;14.036;2022-12-11T08:15:36;1.80;99.90
57552;DHT22;43379;48.160;14.036;2022-12-11T08:18:02;1.70;99.90
57552;DHT22;43379;48.160;14.036;2022-12-11T08:20:28;1.80;99.90
57552;DHT22;43379;48.160;14.036;2022-12-11T08:22:55;1.80;99.90
57552;DHT22;43379;48.160;14.036;2022-12-11T08:25:21;1.80;99.90
57552;DHT22;43379;48.160;14.036;2022-12-11T08:27:46;1.80;99.90
57552;DHT22;43379;48.160;14.036;2022-12-11T08:30:12;1.90;99.90
57552;DHT22;43379;48.160;14.036;2022-12-11T08:32:38;2.00;99.90
57552;DHT22;43379;48.160;14.036;2022-12-11T08:35:04;2.10;99.90
57552;DHT22;43379;48.160;14.036;2022-12-11T08:37:30;2.30;99.90
57552;DHT22;43379;48.160;14.036;2022-12-11T08:39:55;2.30;99.90
57552;DHT22;43379;48.160;14.036;2022-12-11T08:42:21;2.50;99.90
57552;DHT22;43379;48.160;14.036;2022-12-11T08:44:47;2.50;99.90
57552;DHT22;43379;48.160;14.036;2022-12-11T08:47:12;2.60;99.90
57552;DHT22;43379;48.160;14.036;2022-12-11T08:49:39;2.60;99.90
57552;DHT22;43379;48.160;14.036;2022-12-11T08:52:05;2.70;99.90
57552;DHT22;43379;48.160;14.036;2022-12-11T08:54:31;2.80;99.90
57552;DHT22;43379;48.160;14.036;2022-12-11T08:56:57;2.90;99.90
57552;DHT22;43379;48.160;14.036;2022-12-11T08:59:22;2.80;99.90
57552;DHT22;43379;48.160;14.036;2022-12-11T09:01:50;3.00;99.90
57552;DHT22;43379;48.160;14.036;2022-12-11T09:04:15;2.90;99.90
57552;DHT22;43379;48.160;14.036;2022-12-11T09:06:41;2.90;99.90
57552;DHT22;43379;48.160;14.036;2022-12-11T09:09:07;3.00;99.90
57552;DHT22;43379;48.160;14.036;2022-12-11T09:11:35;3.00;99.90
57552;DHT22;43379;48.160;14.036;2022-12-11T09:14:01;3.10;99.90
57552;DHT22;43379;48.160;14.036;2022-12-11T09:16:28;3.10;99.90
57552;DHT22;43379;48.160;14.036;2022-12-11T09:18:55;3.20;99.90
57552;DHT22;43379;48.160;14.036;2022-12-11T09:21:24;3.20;99.90
57552;DHT22;43379;48.160;14.036;2022-12-11T09:23:58;3.30;99.90
57552;DHT22;43379;48.160;14.036;2022-12-11T09:26:25;3.30;99.90
57552;DHT22;43379;48.160;14.036;2022-12-11T09:28:54;3.30;99.90
57552;DHT22;43379;48.160;14.036;2022-12-11T09:31:23;3.30;99.90
57552;DHT22;43379;48.160;14.036;2022-12-11T09:33:50;3.40;99.90
57552;DHT22;43379;48.160;14.036;2022-12-11T09:36:17;3.40;99.90
57552;DHT22;43379;48.160;14.036;2022-12-11T09:38:43;3.30;99.90
57552;DHT22;43379;48.160;14.036;2022-12-11T09:47:01;3.40;99.90
57552;DHT22;43379;48.160;14.036;2022-12-11T09:49:32;3.40;99.90
57552;DHT22;43379;48.160;14.036;2022-12-11T09:52:15;3.20;99.90
57552;DHT22;43379;48.160;14.036;2022-12-11T09:54:58;3.20;99.90
57552;DHT22;43379;48.160;14.036;2022-12-11T10:05:54;3.20;99.90
57552;DHT22;43379;48.160;14.036;2022-12-11T10:08:44;3.30;99.90
57552;DHT22;43379;48.160;14.036;2022-12-11T10:17:11;3.00;99.90
57552;DHT22;43379;48.160;14.036;2022-12-11T10:19:38;2.80;99.90
57552;DHT22;43379;48.160;14.036;2022-12-11T10:22:19;2.80;99.90
57552;DHT22;43379;48.160;14.036;2022-12-11T10:27:23;2.80;99.90
57552;DHT22;43379;48.160;14.036;2022-12-11T10:30:32;2.70;99.90
57552;DHT22;43379;48.160;14.036;2022-12-11T10:33:05;2.70;99.90
57552;DHT22;43379;48.160;14.036;2022-12-11T10:35:44;2.80;99.90
57552;DHT22;43379;48.160;14.036;2022-12-11T10:38:15;2.70;99.90
57552;DHT22;43379;48.160;14.036;2022-12-11T10:40:44;2.70;99.90
57552;DHT22;43379;48.160;14.036;2022-12-11T10:43:10;2.90;99.90
57552;DHT22;43379;48.160;14.036;2022-12-11T10:45:36;2.90;99.90
57552;DHT22;43379;48.160;14.036;2022-12-11T10:48:11;2.80;99.90
57552;DHT22;43379;48.160;14.036;2022-12-11T10:50:37;2.70;99.90
57552;DHT22;43379;48.160;14.036;2022-12-11T10:53:04;2.70;99.90
57552;DHT22;43379;48.160;14.036;2022-12-11T10:55:39;2.70;99.90
57552;DHT22;43379;48.160;14.036;2022-12-11T10:58:19;2.70;99.90
57552;DHT22;43379;48.160;14.036;2022-12-11T11:01:10;2.80;99.90
57552;DHT22;43379;48.160;14.036;2022-12-11T11:03:35;2.70;99.90
57552;DHT22;43379;48.160;14.036;2022-12-11T11:06:15;2.70;99.90
57552;DHT22;43379;48.160;14.036;2022-12-11T11:08:50;2.60;99.90
57552;DHT22;43379;48.160;14.036;2022-12-11T11:11:35;2.60;99.90
57552;DHT22;43379;48.160;14.036;2022-12-11T11:14:13;2.70;99.90
57552;DHT22;43379;48.160;14.036;2022-12-11T11:16:41;2.70;99.90
57552;DHT22;43379;48.160;14.036;2022-12-11T11:21:48;2.80;99.90
57552;DHT22;43379;48.160;14.036;2022-12-11T11:26:58;2.80;99.90
57552;DHT22;43379;48.160;14.036;2022-12-11T11:29:30;2.70;99.90
57552;DHT22;43379;48.160;14.036;2022-12-11T11:32:14;2.80;99.90
57552;DHT22;43379;48.160;14.036;2022-12-11T11:34:41;2.80;99.90
57552;DHT22;43379;48.160;14.036;2022-12-11T11:37:30;2.70;99.90
57552;DHT22;43379;48.160;14.036;2022-12-11T11:40:12;2.80;99.90
57552;DHT22;43379;48.160;14.036;2022-12-11T11:45:19;2.90;99.90
57552;DHT22;43379;48.160;14.036;2022-12-11T11:48:23;3.00;99.90
57552;DHT22;43379;48.160;14.036;2022-12-11T11:50:53;3.10;99.90
57552;DHT22;43379;48.160;14.036;2022-12-11T11:53:33;3.10;99.90
57552;DHT22;43379;48.160;14.036;2022-12-11T11:58:38;3.10;99.90
57552;DHT22;43379;48.160;14.036;2022-12-11T12:01:13;3.10;99.90
57552;DHT22;43379;48.160;14.036;2022-12-11T12:03:39;3.00;99.30
57552;DHT22;43379;48.160;14.036;2022-12-11T12:17:49;2.90;99.90
57552;DHT22;43379;48.160;14.036;2022-12-11T12:20:28;2.90;99.10
57552;DHT22;43379;48.160;14.036;2022-12-11T12:23:20;2.80;99.50
57552;DHT22;43379;48.160;14.036;2022-12-11T12:28:44;2.60;99.70
57552;DHT22;43379;48.160;14.036;2022-12-11T12:47:43;2.50;99.80
57552;DHT22;43379;48.160;14.036;2022-12-11T12:50:18;2.50;99.60
57552;DHT22;43379;48.160;14.036;2022-12-11T12:52:45;2.50;99.90
57552;DHT22;43379;48.160;14.036;2022-12-11T12:57:49;2.40;99.90
57552;DHT22;43379;48.160;14.036;2022-12-11T13:00:30;2.40;99.90
57552;DHT22;43379;48.160;14.036;2022-12-11T13:02:58;2.40;99.90
57552;DHT22;43379;48.160;14.036;2022-12-11T13:05:32;2.40;99.90
57552;DHT22;43379;48.160;14.036;2022-12-11T13:08:02;2.40;99.90
57552;DHT22;43379;48.160;14.036;2022-12-11T13:10:32;2.40;99.90
57552;DHT22;43379;48.160;14.036;2022-12-11T13:12:59;2.50;99.90
57552;DHT22;43379;48.160;14.036;2022-12-11T13:15:32;2.50;99.90
57552;DHT22;43379;48.160;14.036;2022-12-11T13:18:00;2.40;99.90
57552;DHT22;43379;48.160;14.036;2022-12-11T13:20:32;2.40;99.90
57552;DHT22;43379;48.160;14.036;2022-12-11T13:23:19;2.40;99.90
57552;DHT22;43379;48.160;14.036;2022-12-11T13:25:51;2.40;99.70
57552;DHT22;43379;48.160;14.036;2022-12-11T13:33:27;2.30;99.90
57552;DHT22;43379;48.160;14.036;2022-12-11T13:38:37;2.20;99.90
57552;DHT22;43379;48.160;14.036;2022-12-11T13:41:09;2.20;99.90
57552;DHT22;43379;48.160;14.036;2022-12-11T13:43:36;2.30;99.90
57552;DHT22;43379;48.160;14.036;2022-12-11T13:46:05;2.30;99.90
57552;DHT22;43379;48.160;14.036;2022-12-11T13:48:37;2.20;99.90
57552;DHT22;43379;48.160;14.036;2022-12-11T13:51:04;2.20;99.90
57552;DHT22;43379;48.160;14.036;2022-12-11T13:53:31;2.10;99.90
57552;DHT22;43379;48.160;14.036;2022-12-11T13:56:01;2.10;99.90
57552;DHT22;43379;48.160;14.036;2022-12-11T13:58:28;2.20;99.90
57552;DHT22;43379;48.160;14.036;2022-12-11T14:01:19;2.20;99.90
57552;DHT22;43379;48.160;14.036;2022-12-11T14:06:18;2.00;99.90
57552;DHT22;43379;48.160;14.036;2022-12-11T14:08:44;1.90;99.90
57552;DHT22;43379;48.160;14.036;2022-12-11T14:11:24;1.90;99.90
57552;DHT22;43379;48.160;14.036;2022-12-11T14:13:53;1.90;99.90
57552;DHT22;43379;48.160;14.036;2022-12-11T14:16:21;1.90;99.90
57552;DHT22;43379;48.160;14.036;2022-12-11T14:18:49;1.90;99.90
57552;DHT22;43379;48.160;14.036;2022-12-11T14:21:21;1.80;99.90
57552;DHT22;43379;48.160;14.036;2022-12-11T14:23:52;1.80;99.90
57552;DHT22;43379;48.160;14.036;2022-12-11T14:26:30;1.80;99.90
57552;DHT22;43379;48.160;14.036;2022-12-11T14:28:56;1.80;99.90
57552;DHT22;43379;48.160;14.036;2022-12-11T14:31:33;1.70;99.90
57552;DHT22;43379;48.160;14.036;2022-12-11T14:34:06;1.70;99.90
57552;DHT22;43379;48.160;14.036;2022-12-11T14:36:36;1.70;99.90
57552;DHT22;43379;48.160;14.036;2022-12-11T14:39:16;1.60;99.90
57552;DHT22;43379;48.160;14.036;2022-12-11T14:42:19;1.60;99.90
57552;DHT22;43379;48.160;14.036;2022-12-11T14:45:00;1.60;99.90
57552;DHT22;43379;48.160;14.036;2022-12-11T14:47:30;1.50;99.90
57552;DHT22;43379;48.160;14.036;2022-12-11T14:50:26;1.50;99.90
57552;DHT22;43379;48.160;14.036;2022-12-11T14:53:12;1.40;99.90
57552;DHT22;43379;48.160;14.036;2022-12-11T14:55:39;1.40;99.90
57552;DHT22;43379;48.160;14.036;2022-12-11T15:00:38;1.40;99.90
57552;DHT22;43379;48.160;14.036;2022-12-11T15:03:17;1.30;99.90
57552;DHT22;43379;48.160;14.036;2022-12-11T15:05:53;1.30;99.90
57552;DHT22;43379;48.160;14.036;2022-12-11T15:08:23;1.30;99.90
57552;DHT22;43379;48.160;14.036;2022-12-11T15:11:10;1.30;99.90
57552;DHT22;43379;48.160;14.036;2022-12-11T15:13:59;1.30;99.90
57552;DHT22;43379;48.160;14.036;2022-12-11T15:16:31;1.30;99.90
57552;DHT22;43379;48.160;14.036;2022-12-11T15:18:58;1.20;99.90
57552;DHT22;43379;48.160;14.036;2022-12-11T15:21:32;1.20;99.90
57552;DHT22;43379;48.160;14.036;2022-12-11T15:24:01;1.30;99.90
57552;DHT22;43379;48.160;14.036;2022-12-11T15:26:39;1.30;99.90
57552;DHT22;43379;48.160;14.036;2022-12-11T15:29:34;1.20;99.90
57552;DHT22;43379;48.160;14.036;2022-12-11T15:32:21;1.20;99.90
57552;DHT22;43379;48.160;14.036;2022-12-11T15:34:47;1.20;99.90
57552;DHT22;43379;48.160;14.036;2022-12-11T15:37:33;1.20;99.90
57552;DHT22;43379;48.160;14.036;2022-12-11T15:40:05;1.20;99.90
57552;DHT22;43379;48.160;14.036;2022-12-11T15:42:35;1.20;99.90
57552;DHT22;43379;48.160;14.036;2022-12-11T15:45:02;1.20;99.90
57552;DHT22;43379;48.160;14.036;2022-12-11T15:47:30;1.20;99.90
57552;DHT22;43379;48.160;14.036;2022-12-11T15:52:37;1.20;99.90
57552;DHT22;43379;48.160;14.036;2022-12-11T15:55:03;1.20;99.90
57552;DHT22;43379;48.160;14.036;2022-12-11T15:57:29;1.20;99.90
57552;DHT22;43379;48.160;14.036;2022-12-11T15:59:55;1.20;99.90
57552;DHT22;43379;48.160;14.036;2022-12-11T16:02:20;1.20;99.90
57552;DHT22;43379;48.160;14.036;2022-12-11T16:04:48;1.20;99.90
57552;DHT22;43379;48.160;14.036;2022-12-11T16:07:17;1.20;99.90
57552;DHT22;43379;48.160;14.036;2022-12-11T16:09:44;1.20;99.90
57552;DHT22;43379;48.160;14.036;2022-12-11T16:12:09;1.30;99.90
57552;DHT22;43379;48.160;14.036;2022-12-11T16:14:35;1.30;99.90
57552;DHT22;43379;48.160;14.036;2022-12-11T16:17:04;1.30;99.90
57552;DHT22;43379;48.160;14.036;2022-12-11T16:19:31;1.30;99.90
57552;DHT22;43379;48.160;14.036;2022-12-11T16:21:57;1.30;99.90
57552;DHT22;43379;48.160;14.036;2022-12-11T16:24:22;1.30;99.90
57552;DHT22;43379;48.160;14.036;2022-12-11T16:26:48;1.30;99.90
57552;DHT22;43379;48.160;14.036;2022-12-11T16:29:14;1.30;99.90
57552;DHT22;43379;48.160;14.036;2022-12-11T16:31:39;1.30;99.90
57552;DHT22;43379;48.160;14.036;2022-12-11T16:34:05;1.30;99.90
57552;DHT22;43379;48.160;14.036;2022-12-11T16:36:31;1.40;99.90
57552;DHT22;43379;48.160;14.036;2022-12-11T16:38:56;1.40;99.90
57552;DHT22;43379;48.160;14.036;2022-12-11T16:41:22;1.40;99.90
57552;DHT22;43379;48.160;14.036;2022-12-11T16:43:48;1.40;99.90
57552;DHT22;43379;48.160;14.036;2022-12-11T16:46:17;1.40;99.90
57552;DHT22;43379;48.160;14.036;2022-12-11T16:48:43;1.30;99.90
57552;DHT22;43379;48.160;14.036;2022-12-11T16:51:09;1.30;99.90
57552;DHT22;43379;48.160;14.036;2022-12-11T16:53:35;1.30;99.90
57552;DHT22;43379;48.160;14.036;2022-12-11T16:56:01;1.30;99.90
57552;DHT22;43379;48.160;14.036;2022-12-11T16:58:26;1.30;99.90
57552;DHT22;43379;48.160;14.036;2022-12-11T17:00:52;1.20;99.90
57552;DHT22;43379;48.160;14.036;2022-12-11T17:03:27;1.10;99.90
57552;DHT22;43379;48.160;14.036;2022-12-11T17:05:54;1.20;99.90
57552;DHT22;43379;48.160;14.036;2022-12-11T17:08:20;1.20;99.90
57552;DHT22;43379;48.160;14.036;2022-12-11T17:10:45;1.20;99.90
57552;DHT22;43379;48.160;14.036;2022-12-11T17:13:12;1.30;99.90
57552;DHT22;43379;48.160;14.036;2022-12-11T17:15:41;1.30;99.90
57552;DHT22;43379;48.160;14.036;2022-12-11T17:18:08;1.20;99.90
57552;DHT22;43379;48.160;14.036;2022-12-11T17:20:34;1.20;99.90
57552;DHT22;43379;48.160;14.036;2022-12-11T17:23:03;1.20;99.90
57552;DHT22;43379;48.160;14.036;2022-12-11T17:25:29;1.20;99.90